createdAt,value
2023-01-17T00:02:08.802Z,4.15
2023-01-17T00:04:35.513Z,4.31
2023-01-17T00:07:02.150Z,4.46
2023-01-17T00:09:28.800Z,4.58
2023-01-17T00:11:55.708Z,4.61
2023-01-17T00:14:22.336Z,4.60
2023-01-17T00:16:48.967Z,4.61
2023-01-17T00:19:15.568Z,4.58
2023-01-17T00:21:42.204Z,4.50
2023-01-17T00:24:08.836Z,4.38
2023-01-17T00:26:35.487Z,4.29
2023-01-17T00:29:02.136Z,4.26
2023-01-17T00:31:28.787Z,4.27
2023-01-17T00:33:55.485Z,4.20
2023-01-17T00:36:22.123Z,4.20
2023-01-17T00:38:48.730Z,4.21
2023-01-17T00:41:15.431Z,4.27
2023-01-17T00:43:42.063Z,4.39
2023-01-17T00:46:08.707Z,4.31
2023-01-17T00:48:35.355Z,4.20
2023-01-17T00:51:03.196Z,4.23
2023-01-17T00:53:30.072Z,4.31
2023-01-17T00:56:00.089Z,4.42
2023-01-17T00:58:26.731Z,4.32
2023-01-17T01:00:53.473Z,4.32
2023-01-17T01:03:20.145Z,4.44
2023-01-17T01:05:46.778Z,4.31
2023-01-17T01:08:24.208Z,4.28
2023-01-17T01:10:50.832Z,4.24
2023-01-17T01:13:17.456Z,4.26
2023-01-17T01:15:44.094Z,4.27
2023-01-17T01:18:11.382Z,4.31
2023-01-17T01:20:38.021Z,4.31
2023-01-17T01:23:07.661Z,4.39
2023-01-17T01:25:35.682Z,4.30
2023-01-17T01:28:06.348Z,4.38
2023-01-17T01:30:33.034Z,4.28
2023-01-17T01:32:59.670Z,4.26
2023-01-17T01:35:26.436Z,4.22
2023-01-17T01:37:53.085Z,4.33
2023-01-17T01:40:19.721Z,4.45
2023-01-17T01:42:53.075Z,4.41
2023-01-17T01:45:22.200Z,4.44
2023-01-17T01:47:48.933Z,4.47
2023-01-17T01:50:15.602Z,4.30
2023-01-17T01:52:45.544Z,4.14
2023-01-17T01:55:15.852Z,3.67
2023-01-17T01:57:43.813Z,3.48
2023-01-17T02:00:15.934Z,3.34
2023-01-17T02:02:42.980Z,3.46
2023-01-17T02:05:09.897Z,3.63
2023-01-17T02:08:04.063Z,3.75
2023-01-17T02:10:38.082Z,3.85
2023-01-17T02:13:04.890Z,4.00
2023-01-17T02:15:50.915Z,4.09
2023-01-17T02:18:26.411Z,4.18
2023-01-17T02:21:14.085Z,4.23
2023-01-17T02:23:53.636Z,4.37
2023-01-17T02:26:31.066Z,4.34
2023-01-17T02:29:17.452Z,4.35
2023-01-17T02:31:47.521Z,4.27
2023-01-17T02:34:46.132Z,4.33
2023-01-17T02:37:19.576Z,4.37
2023-01-17T02:39:51.528Z,4.48
2023-01-17T02:42:19.041Z,4.30
2023-01-17T02:44:45.695Z,4.22
2023-01-17T02:47:28.429Z,4.19
2023-01-17T02:50:02.227Z,4.16
2023-01-17T02:52:52.461Z,4.32
2023-01-17T02:55:27.664Z,4.30
2023-01-17T02:57:54.180Z,4.26
2023-01-17T03:00:22.017Z,4.28
2023-01-17T03:03:07.884Z,4.23
2023-01-17T03:05:39.311Z,4.29
2023-01-17T03:08:05.957Z,4.39
2023-01-17T03:10:32.866Z,4.25
2023-01-17T03:12:59.936Z,4.23
2023-01-17T03:15:26.660Z,4.20
2023-01-17T03:17:53.760Z,4.35
2023-01-17T03:20:22.475Z,4.34
2023-01-17T03:22:49.448Z,4.25
2023-01-17T03:25:16.538Z,4.23
2023-01-17T03:27:43.174Z,4.23
2023-01-17T03:30:10.229Z,4.23
2023-01-17T03:32:36.872Z,4.19
2023-01-17T03:35:03.555Z,4.19
2023-01-17T03:37:30.179Z,4.13
2023-01-17T03:39:56.798Z,4.18
2023-01-17T03:42:23.423Z,4.15
2023-01-17T03:44:50.090Z,4.18
2023-01-17T03:47:16.701Z,4.21
2023-01-17T03:49:43.327Z,4.04
2023-01-17T03:52:10.006Z,4.02
2023-01-17T03:54:36.611Z,4.02
2023-01-17T03:57:03.239Z,4.09
2023-01-17T03:59:29.878Z,4.08
2023-01-17T04:01:56.558Z,4.03
2023-01-17T04:04:23.238Z,3.98
2023-01-17T04:06:49.860Z,4.01
2023-01-17T04:09:16.486Z,4.05
2023-01-17T04:11:43.127Z,4.07
2023-01-17T04:14:09.756Z,4.12
2023-01-17T04:16:36.502Z,4.12
2023-01-17T04:19:03.129Z,4.11
2023-01-17T04:21:29.771Z,4.11
2023-01-17T04:23:56.429Z,4.11
2023-01-17T04:26:23.133Z,4.15
2023-01-17T04:28:49.772Z,4.06
2023-01-17T04:31:16.787Z,4.12
2023-01-17T04:33:43.573Z,4.03
2023-01-17T04:36:10.206Z,4.12
2023-01-17T04:38:37.337Z,4.09
2023-01-17T04:41:03.952Z,4.08
2023-01-17T04:43:30.617Z,4.07
2023-01-17T04:45:57.509Z,4.23
2023-01-17T04:48:24.219Z,4.12
2023-01-17T04:50:51.152Z,4.13
2023-01-17T04:53:17.807Z,4.18
2023-01-17T04:55:47.279Z,4.22
2023-01-17T04:58:13.962Z,4.40
2023-01-17T05:00:40.617Z,4.37
2023-01-17T05:03:07.250Z,4.30
2023-01-17T05:05:33.873Z,4.38
2023-01-17T05:08:00.509Z,4.38
2023-01-17T05:10:27.135Z,4.32
2023-01-17T05:12:57.063Z,4.32
2023-01-17T05:15:23.805Z,4.33
2023-01-17T05:17:51.484Z,4.36
2023-01-17T05:20:18.589Z,4.21
2023-01-17T05:22:45.218Z,4.38
2023-01-17T05:25:11.896Z,4.31
2023-01-17T05:27:38.533Z,4.28
2023-01-17T05:30:05.698Z,4.29
2023-01-17T05:32:32.341Z,4.32
2023-01-17T05:34:58.953Z,4.28
2023-01-17T05:37:25.610Z,4.34
2023-01-17T05:39:52.231Z,4.37
2023-01-17T05:42:18.884Z,4.33
2023-01-17T05:44:45.533Z,4.30
2023-01-17T05:47:12.173Z,4.29
2023-01-17T05:49:38.825Z,4.31
2023-01-17T05:52:09.230Z,4.33
2023-01-17T05:54:35.852Z,4.33
2023-01-17T05:57:03.001Z,4.38
2023-01-17T05:59:36.860Z,4.42
2023-01-17T06:02:04.176Z,4.52
2023-01-17T06:04:30.805Z,4.49
2023-01-17T06:06:57.507Z,4.54
2023-01-17T06:09:24.529Z,4.52
2023-01-17T06:11:51.221Z,4.47
2023-01-17T06:14:17.927Z,4.44
2023-01-17T06:16:44.553Z,4.45
2023-01-17T06:19:11.158Z,4.46
2023-01-17T06:21:37.866Z,4.50
2023-01-17T06:24:04.715Z,4.48
2023-01-17T06:26:31.343Z,4.41
2023-01-17T06:28:58.000Z,4.40
2023-01-17T06:31:24.712Z,4.36
2023-01-17T06:33:51.361Z,4.31
2023-01-17T06:36:18.009Z,4.29
2023-01-17T06:38:44.651Z,4.40
2023-01-17T06:41:11.296Z,4.43
2023-01-17T06:43:37.959Z,4.40
2023-01-17T06:46:04.608Z,4.38
2023-01-17T06:48:31.340Z,4.33
2023-01-17T06:50:57.990Z,4.35
2023-01-17T06:53:24.643Z,4.39
2023-01-17T06:55:51.297Z,4.37
2023-01-17T06:58:17.933Z,4.40
2023-01-17T07:00:44.593Z,4.37
2023-01-17T07:03:21.928Z,4.41
2023-01-17T07:05:48.595Z,4.38
2023-01-17T07:08:15.305Z,4.36
2023-01-17T07:10:41.921Z,4.38
2023-01-17T07:13:08.535Z,4.43
2023-01-17T07:15:35.209Z,4.52
2023-01-17T07:18:02.363Z,4.34
2023-01-17T07:20:29.042Z,4.41
2023-01-17T07:22:55.705Z,4.38
2023-01-17T07:25:22.346Z,4.40
2023-01-17T07:27:49.083Z,4.41
2023-01-17T07:30:15.964Z,4.44
2023-01-17T07:32:42.610Z,4.47
2023-01-17T07:35:09.393Z,4.48
2023-01-17T07:37:36.033Z,4.54
2023-01-17T07:40:02.674Z,4.51
2023-01-17T07:42:29.339Z,4.48
2023-01-17T07:44:55.987Z,4.50
2023-01-17T07:47:22.640Z,4.47
2023-01-17T07:49:49.296Z,4.49
2023-01-17T07:52:18.218Z,4.52
2023-01-17T07:54:45.210Z,4.49
2023-01-17T07:57:12.217Z,4.54
2023-01-17T07:59:38.862Z,4.58
2023-01-17T08:02:05.557Z,4.51
2023-01-17T08:04:32.217Z,4.45
2023-01-17T08:06:58.865Z,4.45
2023-01-17T08:09:25.498Z,4.42
2023-01-17T08:11:52.124Z,4.43
2023-01-17T08:14:18.767Z,4.37
2023-01-17T08:16:45.409Z,4.42
2023-01-17T08:19:12.072Z,4.40
2023-01-17T08:21:38.726Z,4.46
2023-01-17T08:24:05.629Z,4.40
2023-01-17T08:26:32.278Z,4.46
2023-01-17T08:28:59.100Z,4.44
2023-01-17T08:31:26.702Z,4.37
2023-01-17T08:33:53.377Z,4.33
2023-01-17T08:36:20.137Z,4.35
2023-01-17T08:38:46.829Z,4.40
2023-01-17T08:41:13.504Z,4.35
2023-01-17T08:43:40.155Z,4.47
2023-01-17T08:46:06.783Z,4.44
2023-01-17T08:48:33.418Z,4.44
2023-01-17T08:51:01.423Z,4.07
2023-01-17T08:53:28.433Z,3.98
2023-01-17T08:56:01.363Z,3.98
2023-01-17T08:58:30.429Z,3.99
2023-01-17T09:01:01.989Z,4.00
2023-01-17T09:03:29.080Z,3.93
2023-01-17T09:06:02.667Z,3.86
2023-01-17T09:08:29.358Z,3.79
2023-01-17T09:10:56.097Z,3.53
2023-01-17T09:13:22.775Z,3.58
2023-01-17T09:15:49.464Z,3.37
2023-01-17T09:18:16.242Z,3.47
2023-01-17T09:20:42.932Z,3.59
2023-01-17T09:23:09.581Z,3.65
2023-01-17T09:25:36.241Z,3.46
2023-01-17T09:28:02.871Z,3.52
2023-01-17T09:30:29.550Z,3.43
2023-01-17T09:32:56.572Z,3.42
2023-01-17T09:35:23.225Z,3.07
2023-01-17T09:37:52.863Z,3.29
2023-01-17T09:40:21.551Z,3.45
2023-01-17T09:42:50.368Z,3.58
2023-01-17T09:45:17.991Z,3.71
2023-01-17T09:47:46.248Z,3.85
2023-01-17T09:50:22.776Z,3.91
2023-01-17T09:52:49.447Z,4.01
2023-01-17T09:55:16.591Z,4.02
2023-01-17T09:58:02.937Z,4.08
2023-01-17T10:00:47.184Z,4.16
2023-01-17T10:03:46.371Z,4.34
2023-01-17T10:06:23.747Z,4.38
2023-01-17T10:09:05.692Z,4.49
2023-01-17T10:11:38.233Z,4.53
2023-01-17T10:14:10.822Z,4.60
2023-01-17T10:16:44.346Z,4.63
2023-01-17T10:19:16.602Z,4.64
2023-01-17T10:21:59.170Z,4.59
2023-01-17T10:24:51.150Z,4.62
2023-01-17T10:27:34.990Z,4.66
2023-01-17T10:30:02.716Z,4.63
2023-01-17T10:32:29.647Z,4.64
2023-01-17T10:34:56.287Z,4.69
2023-01-17T10:37:39.804Z,4.76
2023-01-17T10:40:29.285Z,4.80
2023-01-17T10:43:23.796Z,4.81
2023-01-17T10:45:55.296Z,4.79
2023-01-17T10:48:45.157Z,4.81
2023-01-17T10:51:20.662Z,4.74
2023-01-17T10:53:55.370Z,4.75
2023-01-17T10:56:23.441Z,4.78
2023-01-17T10:58:50.072Z,4.75
2023-01-17T11:01:20.344Z,4.87
2023-01-17T11:03:50.686Z,4.83
2023-01-17T11:06:24.542Z,4.89
2023-01-17T11:08:54.803Z,4.91
2023-01-17T11:11:25.629Z,4.90
2023-01-17T11:13:53.173Z,4.87
2023-01-17T11:16:24.213Z,4.85
2023-01-17T11:19:08.162Z,4.87
2023-01-17T11:21:35.132Z,4.88
2023-01-17T11:24:09.581Z,4.92
2023-01-17T11:26:36.526Z,4.94
2023-01-17T11:29:32.278Z,4.93
2023-01-17T11:32:30.460Z,4.82
2023-01-17T11:35:15.076Z,4.89
2023-01-17T11:37:48.212Z,4.78
2023-01-17T11:40:21.211Z,4.41
2023-01-17T11:42:47.846Z,4.38
2023-01-17T11:45:25.508Z,4.28
2023-01-17T11:48:15.997Z,4.15
2023-01-17T11:50:47.108Z,4.16
2023-01-17T11:53:21.751Z,4.27
2023-01-17T11:56:15.447Z,4.25
2023-01-17T11:58:42.096Z,4.28
2023-01-17T12:01:28.530Z,4.36
2023-01-17T12:04:10.421Z,4.13
2023-01-17T12:06:57.119Z,3.51
2023-01-17T12:09:40.537Z,3.68
2023-01-17T12:12:13.357Z,3.66
2023-01-17T12:14:54.266Z,3.75
2023-01-17T12:17:58.416Z,3.90
2023-01-17T12:20:35.727Z,3.97
2023-01-17T12:23:02.262Z,4.06
2023-01-17T12:25:50.593Z,4.13
2023-01-17T12:28:30.938Z,4.22
2023-01-17T12:31:33.563Z,4.18
2023-01-17T12:34:23.680Z,4.08
2023-01-17T12:36:55.109Z,3.75
2023-01-17T12:39:25.533Z,3.28
2023-01-17T12:42:18.009Z,3.02
2023-01-17T12:44:50.209Z,2.99
2023-01-17T12:47:16.997Z,2.79
2023-01-17T12:50:20.877Z,2.55
2023-01-17T12:53:22.261Z,2.55
2023-01-17T12:55:50.340Z,2.52
2023-01-17T12:58:25.320Z,2.83
2023-01-17T13:01:22.244Z,3.13
2023-01-17T13:04:18.484Z,3.37
2023-01-17T13:07:02.258Z,3.54
2023-01-17T13:09:35.415Z,3.66
2023-01-17T13:12:04.793Z,3.83
2023-01-17T13:14:31.456Z,3.96
2023-01-17T13:16:59.454Z,3.98
2023-01-17T13:19:31.254Z,4.06
2023-01-17T13:21:57.894Z,4.13
2023-01-17T13:24:42.336Z,4.07
2023-01-17T13:27:21.408Z,4.21
2023-01-17T13:29:56.805Z,4.30
2023-01-17T13:32:43.022Z,4.29
2023-01-17T13:35:14.036Z,4.19
2023-01-17T13:38:05.903Z,4.10
2023-01-17T13:41:03.750Z,4.22
2023-01-17T13:43:38.396Z,4.27
2023-01-17T13:46:05.229Z,4.19
2023-01-17T13:48:33.736Z,4.23
2023-01-17T13:51:01.066Z,4.15
2023-01-17T13:53:36.908Z,4.15
2023-01-17T13:56:13.077Z,4.02
2023-01-17T13:58:45.686Z,3.95
2023-01-17T14:01:12.595Z,3.91
2023-01-17T14:03:51.321Z,3.90
2023-01-17T14:06:34.045Z,3.82
2023-01-17T14:09:13.937Z,3.84
2023-01-17T14:12:00.635Z,3.74
2023-01-17T14:14:42.279Z,3.75
2023-01-17T14:17:17.898Z,3.68
2023-01-17T14:19:48.324Z,3.58
2023-01-17T14:22:21.239Z,3.74
2023-01-17T14:25:09.485Z,3.85
2023-01-17T14:28:03.044Z,4.08
2023-01-17T14:30:34.500Z,4.13
2023-01-17T14:33:15.480Z,4.28
2023-01-17T14:35:56.473Z,4.23
2023-01-17T14:38:26.981Z,4.19
2023-01-17T14:40:57.956Z,4.20
2023-01-17T14:43:25.761Z,4.19
2023-01-17T14:45:59.093Z,4.07
2023-01-17T14:48:26.010Z,4.03
2023-01-17T14:50:53.977Z,4.10
2023-01-17T14:53:38.782Z,4.00
2023-01-17T14:56:16.801Z,4.14
2023-01-17T14:58:43.427Z,4.13
2023-01-17T15:01:20.210Z,4.10
2023-01-17T15:03:51.855Z,4.09
2023-01-17T15:06:19.001Z,4.21
2023-01-17T15:08:45.667Z,4.18
2023-01-17T15:11:18.600Z,4.14
2023-01-17T15:13:47.167Z,4.18
2023-01-17T15:16:20.828Z,4.01
2023-01-17T15:18:47.554Z,3.50
2023-01-17T15:21:18.775Z,3.66
2023-01-17T15:23:48.318Z,3.82
2023-01-17T15:26:16.702Z,3.70
2023-01-17T15:28:43.638Z,3.72
2023-01-17T15:31:12.778Z,3.87
2023-01-17T15:33:41.781Z,3.94
2023-01-17T15:36:25.206Z,4.03
2023-01-17T15:38:58.668Z,4.01
2023-01-17T15:41:26.883Z,4.04
2023-01-17T15:43:53.548Z,4.01
2023-01-17T15:46:24.249Z,4.01
2023-01-17T15:48:50.951Z,3.76
2023-01-17T15:51:30.511Z,3.28
2023-01-17T15:53:57.164Z,3.01
2023-01-17T15:56:26.626Z,2.97
2023-01-17T15:58:53.375Z,3.23
2023-01-17T16:01:26.021Z,3.09
2023-01-17T16:03:54.185Z,2.95
2023-01-17T16:06:36.486Z,2.86
2023-01-17T16:09:03.129Z,2.59
2023-01-17T16:11:29.894Z,2.75
2023-01-17T16:13:56.533Z,2.54
2023-01-17T16:16:23.752Z,2.66
2023-01-17T16:18:56.513Z,2.56
2023-01-17T16:21:27.823Z,2.79
2023-01-17T16:23:54.490Z,2.98
2023-01-17T16:26:21.153Z,3.10
2023-01-17T16:28:47.762Z,3.26
2023-01-17T16:31:14.544Z,3.39
2023-01-17T16:33:41.190Z,3.42
2023-01-17T16:36:14.222Z,3.46
2023-01-17T16:38:41.090Z,3.50
2023-01-17T16:41:07.731Z,3.55
2023-01-17T16:43:34.353Z,3.61
2023-01-17T16:46:01.035Z,3.54
2023-01-17T16:48:27.703Z,3.51
2023-01-17T16:50:54.321Z,3.56
2023-01-17T16:53:25.416Z,3.54
2023-01-17T16:55:53.970Z,3.54
2023-01-17T16:58:20.596Z,3.36
2023-01-17T17:00:47.924Z,3.24
2023-01-17T17:03:18.489Z,3.06
2023-01-17T17:05:45.237Z,2.94
2023-01-17T17:08:11.865Z,2.56
2023-01-17T17:10:38.500Z,2.63
2023-01-17T17:13:05.201Z,2.87
2023-01-17T17:15:31.911Z,3.02
2023-01-17T17:17:58.549Z,3.15
2023-01-17T17:20:25.354Z,2.81
2023-01-17T17:22:52.070Z,2.64
2023-01-17T17:25:18.751Z,2.86
2023-01-17T17:27:45.401Z,2.99
2023-01-17T17:30:12.154Z,3.11
2023-01-17T17:32:38.967Z,2.98
2023-01-17T17:35:05.964Z,2.77
2023-01-17T17:37:32.724Z,2.66
2023-01-17T17:39:59.768Z,2.37
2023-01-17T17:42:26.414Z,2.10
2023-01-17T17:44:53.068Z,2.03
2023-01-17T17:47:19.747Z,1.89
2023-01-17T17:49:46.435Z,1.90
2023-01-17T17:52:13.107Z,1.95
2023-01-17T17:54:39.774Z,2.10
2023-01-17T17:57:06.445Z,2.43
2023-01-17T17:59:33.119Z,2.27
2023-01-17T18:01:59.908Z,2.00
2023-01-17T18:04:26.647Z,1.86
2023-01-17T18:06:56.677Z,1.82
2023-01-17T18:09:23.385Z,1.98
2023-01-17T18:11:50.019Z,2.17
2023-01-17T18:14:16.731Z,2.26
2023-01-17T18:16:43.735Z,2.20
2023-01-17T18:19:15.339Z,2.51
2023-01-17T18:21:42.288Z,2.78
2023-01-17T18:24:13.457Z,2.81
2023-01-17T18:26:41.023Z,2.84
2023-01-17T18:29:08.491Z,2.43
2023-01-17T18:31:35.285Z,2.29
2023-01-17T18:34:07.028Z,2.25
2023-01-17T18:36:33.680Z,2.33
2023-01-17T18:39:00.592Z,2.41
2023-01-17T18:41:28.769Z,2.48
2023-01-17T18:43:55.531Z,2.63
2023-01-17T18:46:22.626Z,2.88
2023-01-17T18:48:49.281Z,2.93
2023-01-17T18:51:17.173Z,2.78
2023-01-17T18:53:44.694Z,2.94
2023-01-17T18:56:21.287Z,3.08
2023-01-17T18:58:48.714Z,2.80
2023-01-17T19:01:16.294Z,2.54
2023-01-17T19:03:44.562Z,2.42
2023-01-17T19:06:12.378Z,2.59
2023-01-17T19:08:39.019Z,2.90
2023-01-17T19:11:05.786Z,3.11
2023-01-17T19:13:32.979Z,3.23
2023-01-17T19:16:00.865Z,3.33
2023-01-17T19:18:27.546Z,3.42
2023-01-17T19:20:54.209Z,3.54
2023-01-17T19:23:20.868Z,3.35
2023-01-17T19:25:52.918Z,3.39
2023-01-17T19:28:19.563Z,3.50
2023-01-17T19:30:46.347Z,3.59
2023-01-17T19:33:13.001Z,3.70
2023-01-17T19:35:39.677Z,3.79
2023-01-17T19:38:06.338Z,3.59
2023-01-17T19:40:33.019Z,3.68
2023-01-17T19:42:59.650Z,3.79
2023-01-17T19:45:26.414Z,3.86
2023-01-17T19:47:53.215Z,3.73
2023-01-17T19:50:19.865Z,3.78
2023-01-17T19:52:46.588Z,3.67
2023-01-17T19:55:13.279Z,3.67
2023-01-17T19:57:39.909Z,3.70
2023-01-17T20:00:10.116Z,3.66
2023-01-17T20:02:37.909Z,3.57
2023-01-17T20:05:05.332Z,3.87
2023-01-17T20:07:31.952Z,3.92
2023-01-17T20:09:58.604Z,3.92
2023-01-17T20:12:25.341Z,3.96
2023-01-17T20:14:51.975Z,3.94
2023-01-17T20:17:18.677Z,3.96
2023-01-17T20:19:45.532Z,4.07
2023-01-17T20:22:12.326Z,4.02
2023-01-17T20:24:38.981Z,4.00
2023-01-17T20:27:05.636Z,3.75
2023-01-17T20:29:32.272Z,3.89
2023-01-17T20:31:58.961Z,3.64
2023-01-17T20:34:25.640Z,3.61
2023-01-17T20:36:54.221Z,3.43
2023-01-17T20:39:20.868Z,3.32
2023-01-17T20:41:47.619Z,3.23
2023-01-17T20:44:14.691Z,3.43
2023-01-17T20:46:41.467Z,3.76
2023-01-17T20:49:16.468Z,3.98
2023-01-17T20:51:43.800Z,3.97
2023-01-17T20:54:14.415Z,4.07
2023-01-17T20:56:41.057Z,4.12
2023-01-17T20:59:08.636Z,4.14
2023-01-17T21:01:36.192Z,4.18
2023-01-17T21:04:03.560Z,4.28
2023-01-17T21:06:30.181Z,4.25
2023-01-17T21:08:56.806Z,4.21
2023-01-17T21:11:24.829Z,4.20
2023-01-17T21:13:51.589Z,4.04
2023-01-17T21:16:19.115Z,4.04
2023-01-17T21:18:46.916Z,3.96
2023-01-17T21:21:20.956Z,3.97
2023-01-17T21:23:47.695Z,4.04
2023-01-17T21:26:14.975Z,3.79
2023-01-17T21:28:42.528Z,3.70
2023-01-17T21:31:09.495Z,3.19
2023-01-17T21:33:36.182Z,3.28
2023-01-17T21:36:06.476Z,3.30
2023-01-17T21:38:33.139Z,3.00
2023-01-17T21:40:59.795Z,3.01
2023-01-17T21:43:26.443Z,3.03
2023-01-17T21:45:53.088Z,2.99
2023-01-17T21:48:19.745Z,2.98
2023-01-17T21:50:46.382Z,2.78
2023-01-17T21:53:13.036Z,2.69
2023-01-17T21:55:39.708Z,2.54
2023-01-17T21:58:13.016Z,2.19
2023-01-17T22:00:42.695Z,2.20
2023-01-17T22:03:09.309Z,2.12
2023-01-17T22:05:35.939Z,2.19
2023-01-17T22:08:02.753Z,2.03
2023-01-17T22:10:29.413Z,1.98
2023-01-17T22:12:56.084Z,2.02
2023-01-17T22:15:22.812Z,2.11
2023-01-17T22:17:49.457Z,2.28
2023-01-17T22:20:16.312Z,2.42
2023-01-17T22:22:42.987Z,2.46
2023-01-17T22:25:09.862Z,2.64
2023-01-17T22:27:36.501Z,2.88
2023-01-17T22:30:03.129Z,3.00
2023-01-17T22:32:29.768Z,3.23
2023-01-17T22:34:56.445Z,3.31
2023-01-17T22:37:23.119Z,3.38
2023-01-17T22:39:49.761Z,3.41
2023-01-17T22:42:16.388Z,3.48
2023-01-17T22:44:43.096Z,3.52
2023-01-17T22:47:09.706Z,3.27
2023-01-17T22:49:36.338Z,3.10
2023-01-17T22:52:02.990Z,2.67
2023-01-17T22:54:29.618Z,2.51
2023-01-17T22:56:56.270Z,2.70
2023-01-17T22:59:22.911Z,2.76
2023-01-17T23:01:49.608Z,2.94
2023-01-17T23:04:16.240Z,3.17
2023-01-17T23:06:43.004Z,3.33
2023-01-17T23:09:14.362Z,3.42
2023-01-17T23:11:45.040Z,3.50
2023-01-17T23:14:12.700Z,3.44
2023-01-17T23:16:50.775Z,3.52
2023-01-17T23:19:17.437Z,3.40
2023-01-17T23:21:44.072Z,3.05
2023-01-17T23:24:10.727Z,2.81
2023-01-17T23:26:37.377Z,2.71
2023-01-17T23:29:04.002Z,2.61
2023-01-17T23:31:30.684Z,2.55
2023-01-17T23:33:57.362Z,2.46
2023-01-17T23:36:23.991Z,2.39
2023-01-17T23:38:50.617Z,2.63
2023-01-17T23:41:17.269Z,2.50
2023-01-17T23:43:43.930Z,2.63
2023-01-17T23:46:13.328Z,2.47
2023-01-17T23:48:40.085Z,2.54
2023-01-17T23:51:06.769Z,2.50
2023-01-17T23:53:34.156Z,2.69
2023-01-17T23:56:07.689Z,2.72
2023-01-17T23:58:34.338Z,2.92
